Airfield :
LOGIN :

Register | Disclaimer

   EN    FR    IT 

 










Legend :    VFR   Marginal VFR   IFR   Intensive IFR   Very Intensive IFR
Visi :
Ceiling :
>= 8 km
>= 3000ft
5 to 8 km
1000 to 3000 ft
1500m to 5 km
500 to 1000 ft
800 to 1500m
200 to 500 ft
< 800m
< 200 ft
Symbols :   Thunderstorms  Fog  Heavy snow  Heavy precipitations  Wind > 20 kt
SIGMETs :     Misc.  Thunderstorms  Icing  Turbulence  Mountain Waves  Volcanic Ashes






- Airport Elevation : 370 ft


EBBE - Beauvechain AB

CURRENT METAR :
  • 241225Z AUTO 21016KT 9999 -RA FEW018/// BKN022/// OVC030/// 05/02 Q0999 WHT

EXPIRED METARs :
  • 241155Z AUTO 20014KT 9999 FEW017/// SCT020/// BKN025/// 05/01 Q0999 WHT
  • 241133Z AUTO 21013KT 9999 FEW019/// SCT023/// OVC034/// 06/02 Q0999 WHT
  • 241114Z AUTO 21012KT 9999 FEW019/// SCT023/// OVC030/// 05/01 Q0999 WHT
  • 241055Z AUTO 22012KT 9999 FEW018/// BKN021/// BKN030/// 05/01 Q0999 WHT
  • 241033Z AUTO 21011KT 9999 -DZ SCT018/// BKN027/// BKN032/// 04/01 Q0999 WHT
  • 240955Z AUTO 21012KT 9999 FEW023/// BKN027/// OVC031/// 05/00 Q0998 BLU
  • 240925Z AUTO 21016KT 9999 FEW018/// SCT029/// BKN033/// 04/01 Q0998 BLU
  • 240855Z AUTO 21015KT 9999 FEW015/// SCT032/// BKN038/// 04/02 Q0998 BLU
  • 240825Z AUTO 22013KT 9999 FEW014/// SCT030/// OVC035/// 04/01 Q0998 BLU
  • 240755Z AUTO 21010KT 9999 FEW013/// SCT018/// BKN027/// 04/03 Q0997 WHT
  • 240748Z AUTO 20010KT 9999 FEW013/// SCT018/// BKN045/// 04/03 Q0997 WHT

Expired Forecast.



MET'MAP, your aeronautical weather chart ! - Copyright ORBIFLY December 2007 - Disclaimer

ORBIFLY MET'MAP TEAM :

Programming & Development : Alexandra Zaïnal
Original concept : Baudouin d'Aumeries
Technical & hardware support : Manuel Goepfert
Assistance : Marc-Olivier Méhu




SOURCES & CREDITS :

   NOAA